createdAt,value
2022-12-03T00:01:22.186Z,73.62
2022-12-03T00:03:50.535Z,72.80
2022-12-03T00:06:20.830Z,73.18
2022-12-03T00:08:49.189Z,73.31
2022-12-03T00:11:17.464Z,73.50
2022-12-03T00:13:47.541Z,73.32
2022-12-03T00:16:16.029Z,73.67
2022-12-03T00:18:44.000Z,73.91
2022-12-03T00:21:12.238Z,73.69
2022-12-03T00:23:42.481Z,73.56
2022-12-03T00:26:13.574Z,73.52
2022-12-03T00:28:42.480Z,73.66
2022-12-03T00:31:12.211Z,73.14
2022-12-03T00:33:40.489Z,73.29
2022-12-03T00:36:11.468Z,73.08
2022-12-03T00:38:39.734Z,73.62
2022-12-03T00:41:08.068Z,73.29
2022-12-03T00:43:36.780Z,74.07
2022-12-03T00:46:05.348Z,73.96
2022-12-03T00:48:35.283Z,74.01
2022-12-03T00:51:03.769Z,73.43
2022-12-03T00:53:31.916Z,74.04
2022-12-03T00:56:01.972Z,73.61
2022-12-03T00:58:30.070Z,73.81
2022-12-03T01:00:59.121Z,73.84
2022-12-03T01:03:27.609Z,73.82
2022-12-03T01:05:57.662Z,73.90
2022-12-03T01:08:25.802Z,73.78
2022-12-03T01:11:27.381Z,73.91
2022-12-03T01:14:07.233Z,73.73
2022-12-03T01:16:35.881Z,73.30
2022-12-03T01:19:04.781Z,73.78
2022-12-03T01:21:34.502Z,74.17
2022-12-03T01:24:03.297Z,74.10
2022-12-03T01:26:31.287Z,73.77
2022-12-03T01:28:59.374Z,73.81
2022-12-03T01:31:44.851Z,73.76
2022-12-03T01:34:13.085Z,73.41
2022-12-03T01:36:44.951Z,73.79
2022-12-03T01:39:13.532Z,73.33
2022-12-03T01:41:42.231Z,73.81
2022-12-03T01:44:18.393Z,73.95
2022-12-03T01:46:47.970Z,73.50
2022-12-03T01:49:20.473Z,73.63
2022-12-03T01:51:51.077Z,74.14
2022-12-03T01:54:22.433Z,74.14
2022-12-03T01:56:50.930Z,74.40
2022-12-03T01:59:21.225Z,74.19
2022-12-03T02:01:49.261Z,74.69
2022-12-03T02:04:21.956Z,74.50
2022-12-03T02:06:51.775Z,74.19
2022-12-03T02:09:21.195Z,73.82
2022-12-03T02:11:51.871Z,74.03
2022-12-03T02:14:23.399Z,74.53
2022-12-03T02:16:51.482Z,74.44
2022-12-03T02:19:28.496Z,74.55
2022-12-03T02:22:05.162Z,74.63
2022-12-03T02:24:43.345Z,74.27
2022-12-03T02:27:13.239Z,74.00
2022-12-03T02:29:41.673Z,74.09
2022-12-03T02:32:09.902Z,74.33
2022-12-03T02:34:40.555Z,73.85
2022-12-03T02:37:16.601Z,74.52
2022-12-03T02:39:49.280Z,74.42
2022-12-03T02:42:38.960Z,74.07
2022-12-03T02:45:10.712Z,74.16
2022-12-03T02:47:43.526Z,74.36
2022-12-03T02:50:15.486Z,73.96
2022-12-03T02:52:47.199Z,73.56
2022-12-03T02:55:18.876Z,73.46
2022-12-03T02:57:51.055Z,73.53
2022-12-03T03:00:20.105Z,73.63
2022-12-03T03:02:48.871Z,74.06
2022-12-03T03:05:18.111Z,73.92
2022-12-03T03:07:46.772Z,73.82
2022-12-03T03:10:16.990Z,73.85
2022-12-03T03:12:45.175Z,73.94
2022-12-03T03:15:15.429Z,74.04
2022-12-03T03:17:44.434Z,73.87
2022-12-03T03:20:13.232Z,73.86
2022-12-03T03:22:43.829Z,73.89
2022-12-03T03:25:16.424Z,73.91
2022-12-03T03:27:46.029Z,74.19
2022-12-03T03:30:16.202Z,74.10
2022-12-03T03:32:44.714Z,74.24
2022-12-03T03:35:14.775Z,74.11
2022-12-03T03:37:43.625Z,74.03
2022-12-03T03:40:42.632Z,74.44
2022-12-03T03:43:47.093Z,74.23
2022-12-03T03:46:25.274Z,73.95
2022-12-03T03:48:53.744Z,73.90
2022-12-03T03:51:22.318Z,73.74
2022-12-03T03:53:51.674Z,74.62
2022-12-03T03:56:21.856Z,74.59
2022-12-03T03:58:50.138Z,74.59
2022-12-03T04:01:20.196Z,74.50
2022-12-03T04:03:48.512Z,74.31
2022-12-03T04:06:16.894Z,74.34
2022-12-03T04:08:44.868Z,74.92
2022-12-03T04:11:30.203Z,74.25
2022-12-03T04:13:58.228Z,74.43
2022-12-03T04:16:28.004Z,74.32
2022-12-03T04:18:56.094Z,73.94
2022-12-03T04:21:42.898Z,74.55
2022-12-03T04:24:12.640Z,74.40
2022-12-03T04:26:58.289Z,74.39
2022-12-03T04:29:26.500Z,74.50
2022-12-03T04:32:12.890Z,74.84
2022-12-03T04:34:58.124Z,74.43
2022-12-03T04:37:26.294Z,74.40
2022-12-03T04:39:54.570Z,73.90
2022-12-03T04:42:22.996Z,74.06
2022-12-03T04:44:51.415Z,74.28
2022-12-03T04:47:22.555Z,74.29
2022-12-03T04:49:52.870Z,74.30
2022-12-03T04:52:22.612Z,74.31
2022-12-03T04:54:52.477Z,74.45
2022-12-03T04:57:20.731Z,74.56
2022-12-03T04:59:48.812Z,74.73
2022-12-03T05:02:16.968Z,74.78
2022-12-03T05:04:46.622Z,74.31
2022-12-03T05:07:14.775Z,74.21
2022-12-03T05:09:43.026Z,73.84
2022-12-03T05:12:11.198Z,73.43
2022-12-03T05:14:39.110Z,73.74
2022-12-03T05:17:07.426Z,73.95
2022-12-03T05:19:53.054Z,74.04
2022-12-03T05:22:22.697Z,73.69
2022-12-03T05:24:50.992Z,73.84
2022-12-03T05:27:23.957Z,73.44
2022-12-03T05:29:52.989Z,73.32
2022-12-03T05:32:21.572Z,73.66
2022-12-03T05:34:50.111Z,73.42
2022-12-03T05:37:18.605Z,73.28
2022-12-03T05:39:48.519Z,73.22
2022-12-03T05:42:34.003Z,73.62
2022-12-03T05:45:02.407Z,73.14
2022-12-03T05:47:30.779Z,73.92
2022-12-03T05:49:59.177Z,73.76
2022-12-03T05:52:27.822Z,73.76
2022-12-03T05:54:57.510Z,73.67
2022-12-03T05:57:26.016Z,73.99
2022-12-03T05:59:55.650Z,74.03
2022-12-03T06:02:25.390Z,73.97
2022-12-03T06:04:53.938Z,74.18
2022-12-03T06:07:26.859Z,74.20
2022-12-03T06:09:56.805Z,73.70
2022-12-03T06:12:25.024Z,74.23
2022-12-03T06:14:55.389Z,73.67
2022-12-03T06:17:26.017Z,73.86
2022-12-03T06:19:54.313Z,73.77
2022-12-03T06:22:22.365Z,73.60
2022-12-03T06:24:52.311Z,73.60
2022-12-03T06:27:23.308Z,73.84
2022-12-03T06:29:51.709Z,73.70
2022-12-03T06:32:20.231Z,73.69
2022-12-03T06:34:48.516Z,73.57
2022-12-03T06:37:16.625Z,73.56
2022-12-03T06:39:44.663Z,73.66
2022-12-03T06:42:12.760Z,73.45
2022-12-03T06:44:42.499Z,73.48
2022-12-03T06:47:10.568Z,73.67
2022-12-03T06:49:38.662Z,73.75
2022-12-03T06:52:07.170Z,73.72
2022-12-03T06:54:35.342Z,73.22
2022-12-03T06:57:04.534Z,73.57
2022-12-03T06:59:36.539Z,72.84
2022-12-03T07:02:06.408Z,72.50
2022-12-03T07:04:34.695Z,72.71
2022-12-03T07:07:06.048Z,72.89
2022-12-03T07:09:34.693Z,73.10
2022-12-03T07:12:04.923Z,72.71
2022-12-03T07:14:35.108Z,73.04
2022-12-03T07:17:05.899Z,73.24
2022-12-03T07:19:37.246Z,73.35
2022-12-03T07:22:06.234Z,73.30
2022-12-03T07:24:36.628Z,73.43
2022-12-03T07:27:05.372Z,73.25
2022-12-03T07:29:33.908Z,73.31
2022-12-03T07:32:02.771Z,73.04
2022-12-03T07:34:31.020Z,73.30
2022-12-03T07:37:03.952Z,72.99
2022-12-03T07:39:32.079Z,73.39
2022-12-03T07:41:59.956Z,73.55
2022-12-03T07:44:31.975Z,73.71
2022-12-03T07:47:00.191Z,73.10
2022-12-03T07:49:31.287Z,72.88
2022-12-03T07:51:59.254Z,72.56
2022-12-03T07:54:28.631Z,72.81
2022-12-03T07:57:01.104Z,72.85
2022-12-03T07:59:30.217Z,73.22
2022-12-03T08:01:58.288Z,72.62
2022-12-03T08:04:26.477Z,71.81
2022-12-03T08:06:54.431Z,71.89
2022-12-03T08:09:22.698Z,71.88
2022-12-03T08:11:52.007Z,71.94
2022-12-03T08:14:21.743Z,71.89
2022-12-03T08:16:49.803Z,71.62
2022-12-03T08:19:19.337Z,71.78
2022-12-03T08:21:47.528Z,72.04
2022-12-03T08:24:17.626Z,71.93
2022-12-03T08:26:47.196Z,71.80
2022-12-03T08:29:18.692Z,71.58
2022-12-03T08:31:52.076Z,71.79
2022-12-03T08:34:23.397Z,72.06
2022-12-03T08:36:57.184Z,71.94
2022-12-03T08:39:34.428Z,71.58
2022-12-03T08:42:30.757Z,71.71
2022-12-03T08:45:11.187Z,71.85
2022-12-03T08:47:40.344Z,71.13
2022-12-03T08:50:27.406Z,71.53
2022-12-03T08:53:03.068Z,71.48
2022-12-03T08:55:36.662Z,71.12
2022-12-03T08:58:22.825Z,70.39
2022-12-03T09:00:59.643Z,70.72
2022-12-03T09:03:32.347Z,70.70
2022-12-03T09:06:00.337Z,70.38
2022-12-03T09:08:28.635Z,70.61
2022-12-03T09:10:56.822Z,70.69
2022-12-03T09:13:24.983Z,70.85
2022-12-03T09:15:54.301Z,70.58
2022-12-03T09:18:22.577Z,69.77
2022-12-03T09:20:50.643Z,69.50
2022-12-03T09:23:21.293Z,69.48
2022-12-03T09:25:49.601Z,69.31
2022-12-03T09:28:21.718Z,69.77
2022-12-03T09:30:50.133Z,69.44
2022-12-03T09:33:20.551Z,69.56
2022-12-03T09:35:49.053Z,69.60
2022-12-03T09:38:17.673Z,69.46
2022-12-03T09:40:46.039Z,69.91
2022-12-03T09:43:15.197Z,69.58
2022-12-03T09:45:46.506Z,69.69
2022-12-03T09:48:16.628Z,69.90
2022-12-03T09:50:51.047Z,69.40
2022-12-03T09:53:28.887Z,69.52
2022-12-03T09:56:05.568Z,69.77
2022-12-03T09:58:35.227Z,69.73
2022-12-03T10:01:12.458Z,69.33
2022-12-03T10:03:45.673Z,69.42
2022-12-03T10:06:19.587Z,69.96
2022-12-03T10:08:49.974Z,69.70
2022-12-03T10:11:19.172Z,69.51
2022-12-03T10:13:48.443Z,69.42
2022-12-03T10:16:21.149Z,69.54
2022-12-03T10:18:54.277Z,68.89
2022-12-03T10:21:26.813Z,69.54
2022-12-03T10:24:09.331Z,69.76
2022-12-03T10:26:41.206Z,69.40
2022-12-03T10:29:14.076Z,69.67
2022-12-03T10:31:42.080Z,69.55
2022-12-03T10:34:10.778Z,69.87
2022-12-03T10:36:40.431Z,69.25
2022-12-03T10:39:11.782Z,69.59
2022-12-03T10:41:40.804Z,69.41
2022-12-03T10:44:20.673Z,69.62
2022-12-03T10:47:07.134Z,69.51
2022-12-03T10:49:35.309Z,69.78
2022-12-03T10:52:08.305Z,69.69
2022-12-03T10:54:36.655Z,69.88
2022-12-03T10:57:04.885Z,69.80
2022-12-03T10:59:35.195Z,69.54
2022-12-03T11:02:05.216Z,69.30
2022-12-03T11:04:35.692Z,69.32
2022-12-03T11:07:15.397Z,69.59
2022-12-03T11:09:45.510Z,69.63
2022-12-03T11:12:23.600Z,69.58
2022-12-03T11:15:07.380Z,69.43
2022-12-03T11:17:44.162Z,69.88
2022-12-03T11:20:34.586Z,68.84
2022-12-03T11:23:04.194Z,68.66
2022-12-03T11:25:56.089Z,68.93
2022-12-03T11:28:53.245Z,68.17
2022-12-03T11:31:42.629Z,68.28
2022-12-03T11:34:50.747Z,68.47
2022-12-03T11:37:26.278Z,68.40
2022-12-03T11:40:26.379Z,68.13
2022-12-03T11:42:54.222Z,68.40
2022-12-03T11:45:31.528Z,68.87
2022-12-03T11:48:18.812Z,68.73
2022-12-03T11:50:52.217Z,68.45
2022-12-03T11:53:22.894Z,69.22
2022-12-03T11:56:06.120Z,69.17
2022-12-03T11:58:35.996Z,69.02
2022-12-03T12:01:06.378Z,69.08
2022-12-03T12:03:36.351Z,69.01
2022-12-03T12:06:06.877Z,69.17
2022-12-03T12:08:35.609Z,68.99
2022-12-03T12:11:16.939Z,69.18
2022-12-03T12:13:55.713Z,68.71
2022-12-03T12:16:50.614Z,68.85
2022-12-03T12:19:36.437Z,68.46
2022-12-03T12:22:32.044Z,68.52
2022-12-03T12:25:01.566Z,67.75
2022-12-03T12:27:37.440Z,68.05
2022-12-03T12:30:08.003Z,68.77
2022-12-03T12:32:42.942Z,68.79
2022-12-03T12:35:17.327Z,68.50
2022-12-03T12:37:55.042Z,68.31
2022-12-03T12:40:28.491Z,68.39
2022-12-03T12:42:59.348Z,68.54
2022-12-03T12:45:29.066Z,68.49
2022-12-03T12:48:06.314Z,68.62
2022-12-03T12:50:34.382Z,68.23
2022-12-03T12:53:09.730Z,68.53
2022-12-03T12:55:38.799Z,69.35
2022-12-03T12:58:14.888Z,68.87
2022-12-03T13:00:43.707Z,68.60
2022-12-03T13:03:13.318Z,68.25
2022-12-03T13:05:44.329Z,68.38
2022-12-03T13:08:22.847Z,68.25
2022-12-03T13:10:51.711Z,68.76
2022-12-03T13:13:31.139Z,68.79
2022-12-03T13:16:01.737Z,68.55
2022-12-03T13:18:46.078Z,68.76
2022-12-03T13:21:23.180Z,68.38
2022-12-03T13:23:52.971Z,69.01
2022-12-03T13:26:36.137Z,68.79
2022-12-03T13:29:14.936Z,69.02
2022-12-03T13:31:46.704Z,68.83
2022-12-03T13:34:20.374Z,68.94
2022-12-03T13:36:55.274Z,68.59
2022-12-03T13:39:30.565Z,69.30
2022-12-03T13:42:17.877Z,69.06
2022-12-03T13:44:49.917Z,68.61
2022-12-03T13:47:21.881Z,68.83
2022-12-03T13:49:54.577Z,68.97
2022-12-03T13:52:25.095Z,69.38
2022-12-03T13:54:56.009Z,68.70
2022-12-03T13:57:24.774Z,68.63
2022-12-03T13:59:57.975Z,69.01
2022-12-03T14:02:26.040Z,69.16
2022-12-03T14:05:00.013Z,68.79
2022-12-03T14:07:53.822Z,69.30
2022-12-03T14:10:22.157Z,69.54
2022-12-03T14:12:58.538Z,69.50
2022-12-03T14:15:27.731Z,69.47
2022-12-03T14:17:55.532Z,69.43
2022-12-03T14:20:23.429Z,69.83
2022-12-03T14:22:55.138Z,70.00
2022-12-03T14:25:27.007Z,69.93
2022-12-03T14:27:54.788Z,70.03
2022-12-03T14:30:22.539Z,69.65
2022-12-03T14:32:51.768Z,70.07
2022-12-03T14:35:19.903Z,70.01
2022-12-03T14:37:47.747Z,69.82
2022-12-03T14:40:21.263Z,69.85
2022-12-03T14:42:49.587Z,70.08
2022-12-03T14:45:17.501Z,70.53
2022-12-03T14:47:45.376Z,70.33
2022-12-03T14:50:14.731Z,70.58
2022-12-03T14:52:43.318Z,70.54
2022-12-03T14:55:11.321Z,70.30
2022-12-03T14:57:39.139Z,70.57
2022-12-03T15:00:08.537Z,70.72
2022-12-03T15:02:36.385Z,70.58
2022-12-03T15:05:04.802Z,71.22
2022-12-03T15:07:34.665Z,71.23
2022-12-03T15:10:02.653Z,71.27
2022-12-03T15:12:31.531Z,71.36
2022-12-03T15:14:59.352Z,71.32
2022-12-03T15:17:31.638Z,71.27
2022-12-03T15:20:00.257Z,71.38
2022-12-03T15:22:28.071Z,71.23
2022-12-03T15:24:57.299Z,71.22
2022-12-03T15:27:25.935Z,71.00
2022-12-03T15:29:53.876Z,71.29
2022-12-03T15:32:29.216Z,70.95
2022-12-03T15:34:57.188Z,71.53
2022-12-03T15:37:27.554Z,71.56
2022-12-03T15:39:55.905Z,71.23
2022-12-03T15:42:25.301Z,71.48
2022-12-03T15:44:53.100Z,71.51
2022-12-03T15:47:20.947Z,71.74
2022-12-03T15:49:48.951Z,71.43
2022-12-03T15:52:16.822Z,71.65
2022-12-03T15:54:45.771Z,71.42
2022-12-03T15:57:13.786Z,71.71
2022-12-03T16:00:04.664Z,71.76
2022-12-03T16:03:11.277Z,71.77
2022-12-03T16:05:56.844Z,71.95
2022-12-03T16:08:24.694Z,72.05
2022-12-03T16:10:52.620Z,71.69
2022-12-03T16:13:20.702Z,71.60
2022-12-03T16:15:50.238Z,72.09
2022-12-03T16:18:18.083Z,71.88
2022-12-03T16:20:45.999Z,71.97
2022-12-03T16:23:13.947Z,71.78
2022-12-03T16:25:41.793Z,72.23
2022-12-03T16:28:10.945Z,72.18
2022-12-03T16:30:41.320Z,70.95
2022-12-03T16:33:10.697Z,71.13
2022-12-03T16:35:38.514Z,71.11
2022-12-03T16:38:06.396Z,70.85
2022-12-03T16:40:34.275Z,71.11
2022-12-03T16:43:03.456Z,70.64
2022-12-03T16:45:51.539Z,70.67
2022-12-03T16:48:21.008Z,70.61
2022-12-03T16:50:49.207Z,70.80
2022-12-03T16:53:18.353Z,71.02
2022-12-03T16:55:46.075Z,70.83
2022-12-03T16:58:13.831Z,70.66
2022-12-03T17:00:41.552Z,70.72
2022-12-03T17:03:09.897Z,70.80
2022-12-03T17:05:39.167Z,70.85
2022-12-03T17:08:07.153Z,71.04
2022-12-03T17:10:35.065Z,70.71
2022-12-03T17:13:10.833Z,71.24
2022-12-03T17:15:39.078Z,70.61
2022-12-03T17:18:07.773Z,70.85
2022-12-03T17:20:35.658Z,70.41
2022-12-03T17:23:05.990Z,70.32
2022-12-03T17:25:34.911Z,70.25
2022-12-03T17:28:02.871Z,70.17
2022-12-03T17:30:30.709Z,70.58
2022-12-03T17:32:58.486Z,70.21
2022-12-03T17:35:26.799Z,70.29
2022-12-03T17:37:54.583Z,70.21
2022-12-03T17:40:24.590Z,70.28
2022-12-03T17:42:52.338Z,70.83
2022-12-03T17:45:20.144Z,70.18
2022-12-03T17:47:47.944Z,70.28
2022-12-03T17:50:17.142Z,70.19
2022-12-03T17:52:45.363Z,70.26
2022-12-03T17:55:21.582Z,70.55
2022-12-03T17:57:56.964Z,70.05
2022-12-03T18:00:27.655Z,70.07
2022-12-03T18:02:57.151Z,69.63
2022-12-03T18:05:27.597Z,70.30
2022-12-03T18:07:55.533Z,70.71
2022-12-03T18:10:33.856Z,69.99
2022-12-03T18:13:15.034Z,70.18
2022-12-03T18:15:43.024Z,70.78
2022-12-03T18:18:15.752Z,70.49
2022-12-03T18:20:43.674Z,70.03
2022-12-03T18:23:11.741Z,69.88
2022-12-03T18:25:39.916Z,70.92
2022-12-03T18:28:09.552Z,70.44
2022-12-03T18:30:52.704Z,70.98
2022-12-03T18:33:21.481Z,69.87
2022-12-03T18:35:49.544Z,70.63
2022-12-03T18:38:22.570Z,70.57
2022-12-03T18:40:52.120Z,70.19
2022-12-03T18:43:21.221Z,70.46
2022-12-03T18:45:49.074Z,69.94
2022-12-03T18:48:20.963Z,70.08
2022-12-03T18:50:49.041Z,70.51
2022-12-03T18:53:23.533Z,70.70
2022-12-03T18:55:51.484Z,70.30
2022-12-03T18:58:19.382Z,70.64
2022-12-03T19:00:48.702Z,70.74
2022-12-03T19:03:16.627Z,70.28
2022-12-03T19:05:44.562Z,70.92
2022-12-03T19:08:14.913Z,70.31
2022-12-03T19:10:43.371Z,70.23
2022-12-03T19:13:11.443Z,70.49
2022-12-03T19:15:39.744Z,70.27
2022-12-03T19:18:15.438Z,70.49
2022-12-03T19:20:43.482Z,70.81
2022-12-03T19:23:11.487Z,70.50
2022-12-03T19:25:39.395Z,70.27
2022-12-03T19:28:08.256Z,70.41
2022-12-03T19:30:36.348Z,70.49
2022-12-03T19:33:04.441Z,70.74
2022-12-03T19:35:34.193Z,70.44
2022-12-03T19:38:02.178Z,70.58
2022-12-03T19:40:32.172Z,70.35
2022-12-03T19:42:59.912Z,70.86
2022-12-03T19:45:27.761Z,70.12
2022-12-03T19:47:55.611Z,70.68
2022-12-03T19:50:23.885Z,70.39
2022-12-03T19:52:53.281Z,70.74
2022-12-03T19:55:21.109Z,70.54
2022-12-03T19:57:49.045Z,69.99
2022-12-03T20:00:17.759Z,70.20
2022-12-03T20:02:47.286Z,70.28
2022-12-03T20:05:15.309Z,70.54
2022-12-03T20:07:43.316Z,70.69
2022-12-03T20:10:12.883Z,70.96
2022-12-03T20:12:40.832Z,71.18
2022-12-03T20:15:09.218Z,70.93
2022-12-03T20:17:36.985Z,70.60
2022-12-03T20:20:08.366Z,71.15
2022-12-03T20:22:36.176Z,70.64
2022-12-03T20:25:05.061Z,70.85
2022-12-03T20:27:36.588Z,70.93
2022-12-03T20:30:06.534Z,70.77
2022-12-03T20:32:40.574Z,70.70
2022-12-03T20:35:11.705Z,71.10
2022-12-03T20:37:39.558Z,70.77
2022-12-03T20:40:08.843Z,71.14
2022-12-03T20:42:38.278Z,70.89
2022-12-03T20:45:07.055Z,71.59
2022-12-03T20:47:35.018Z,70.70
2022-12-03T20:50:03.206Z,71.25
2022-12-03T20:52:31.379Z,70.79
2022-12-03T20:54:59.355Z,71.09
2022-12-03T20:57:27.360Z,71.15
2022-12-03T20:59:56.999Z,71.22
2022-12-03T21:02:26.165Z,71.33
2022-12-03T21:04:54.760Z,71.36
2022-12-03T21:07:22.563Z,71.55
2022-12-03T21:09:53.684Z,70.60
2022-12-03T21:12:21.727Z,71.27
2022-12-03T21:14:50.668Z,71.12
2022-12-03T21:17:25.207Z,71.22
2022-12-03T21:19:57.378Z,71.35
2022-12-03T21:22:25.307Z,70.92
2022-12-03T21:24:53.095Z,71.24
2022-12-03T21:27:22.035Z,71.20
2022-12-03T21:29:50.157Z,71.27
2022-12-03T21:32:19.819Z,71.39
2022-12-03T21:34:47.709Z,71.90
2022-12-03T21:37:15.716Z,71.78
2022-12-03T21:39:59.204Z,71.59
2022-12-03T21:43:20.095Z,71.11
2022-12-03T21:45:50.583Z,71.68
2022-12-03T21:48:20.066Z,71.28
2022-12-03T21:51:04.360Z,71.83
2022-12-03T21:53:35.975Z,72.04
2022-12-03T21:56:09.287Z,72.16
2022-12-03T21:58:38.321Z,71.33
2022-12-03T22:01:12.948Z,72.23
2022-12-03T22:03:42.836Z,72.01
2022-12-03T22:06:11.599Z,71.90
2022-12-03T22:08:39.808Z,71.99
2022-12-03T22:11:09.277Z,71.69
2022-12-03T22:13:38.888Z,71.84
2022-12-03T22:16:08.970Z,71.88
2022-12-03T22:18:37.234Z,71.81
2022-12-03T22:21:07.507Z,71.84
2022-12-03T22:23:35.775Z,71.63
2022-12-03T22:26:05.594Z,71.38
2022-12-03T22:28:34.394Z,71.87
2022-12-03T22:31:06.975Z,71.59
2022-12-03T22:33:35.182Z,71.88
2022-12-03T22:36:04.912Z,71.92
2022-12-03T22:38:34.813Z,72.04
2022-12-03T22:41:06.318Z,71.71
2022-12-03T22:43:36.981Z,71.90
2022-12-03T22:46:07.115Z,71.76
2022-12-03T22:48:35.475Z,71.75
2022-12-03T22:51:03.830Z,72.28
2022-12-03T22:53:34.003Z,72.43
2022-12-03T22:56:03.457Z,71.93
2022-12-03T22:58:31.649Z,71.66
2022-12-03T23:01:02.912Z,71.94
2022-12-03T23:03:31.667Z,71.83
2022-12-03T23:05:59.465Z,71.80
2022-12-03T23:08:27.223Z,71.29
2022-12-03T23:10:57.415Z,71.73
2022-12-03T23:13:26.518Z,71.41
2022-12-03T23:15:54.267Z,71.83
2022-12-03T23:18:22.132Z,72.05
2022-12-03T23:20:52.829Z,71.75
2022-12-03T23:23:23.057Z,71.85
2022-12-03T23:25:57.586Z,71.33
2022-12-03T23:28:27.413Z,71.23
2022-12-03T23:30:55.618Z,71.59
2022-12-03T23:33:23.626Z,71.19
2022-12-03T23:35:51.644Z,71.44
2022-12-03T23:38:19.540Z,71.64
2022-12-03T23:40:48.435Z,71.49
2022-12-03T23:43:16.526Z,71.74
2022-12-03T23:45:45.764Z,71.79
2022-12-03T23:48:13.762Z,71.81
2022-12-03T23:50:42.361Z,71.67
2022-12-03T23:53:10.186Z,72.04
2022-12-03T23:55:40.621Z,72.14
2022-12-03T23:58:08.785Z,72.13
